Time;durP1;ratioP1;P1;durP2;ratioP2;P2;SDS_P1;SDS_P2;PMS_P1;PMS_P2;Temp;Humidity;BMP_temperature;BMP_pressure;BME280_temperature;BME280_humidity;BME280_pressure;Samples;Min_cycle;Max_cycle;Signal;HPM_P1;HPM_P2
2023/07/18 00:02:27;;;;;;;4.25;1.88;;;;;;;;;;5216465;28;20033;-70
2023/07/18 00:04:57;;;;;;;6.03;2.17;;;;;;;;;;5224464;28;20077;-69
2023/07/18 00:07:28;;;;;;;3.58;1.55;;;;;;;;;;5224489;28;20040;-69
2023/07/18 00:09:58;;;;;;;5.05;1.80;;;;;;;;;;5224657;28;20462;-69
2023/07/18 00:12:28;;;;;;;4.03;1.80;;;;;;;;;;5224842;28;20017;-69
2023/07/18 00:14:59;;;;;;;6.05;2.17;;;;;;;;;;5224741;28;20025;-69
2023/07/18 00:17:31;;;;;;;5.45;2.28;;;;;;;;;;5223765;28;20367;-69
2023/07/18 00:20:08;;;;;;;5.25;2.28;;;;;;;;;;5224706;28;20374;-69
2023/07/18 00:22:41;;;;;;;6.55;2.30;;;;;;;;;;5224708;28;20025;-69
2023/07/18 00:25:13;;;;;;;2.90;2.10;;;;;;;;;;5224866;28;20374;-68
2023/07/18 00:27:43;;;;;;;4.63;2.05;;;;;;;;;;5223764;28;20029;-68
2023/07/18 00:30:13;;;;;;;6.18;2.10;;;;;;;;;;5224617;28;20525;-69
2023/07/18 00:32:44;;;;;;;4.90;1.80;;;;;;;;;;5224677;28;20112;-69
2023/07/18 00:35:15;;;;;;;8.48;2.20;;;;;;;;;;5224479;28;20337;-69
2023/07/18 00:37:45;;;;;;;5.00;1.90;;;;;;;;;;5224103;28;20086;-68
2023/07/18 00:40:15;;;;;;;6.18;2.15;;;;;;;;;;5223939;28;20074;-69
2023/07/18 00:42:47;;;;;;;5.60;2.50;;;;;;;;;;5224419;28;20433;-69
2023/07/18 00:45:17;;;;;;;10.68;2.72;;;;;;;;;;5224162;28;20013;-69
2023/07/18 00:47:48;;;;;;;2.30;1.70;;;;;;;;;;5222740;28;20104;-69
2023/07/18 00:50:18;;;;;;;6.30;1.90;;;;;;;;;;5224351;28;20025;-69
2023/07/18 00:52:51;;;;;;;5.28;2.00;;;;;;;;;;5223991;28;20070;-69
2023/07/18 00:55:21;;;;;;;3.95;1.75;;;;;;;;;;5224110;28;20024;-68
2023/07/18 00:57:52;;;;;;;5.88;2.10;;;;;;;;;;5223778;28;20025;-69
2023/07/18 01:00:22;;;;;;;4.15;1.92;;;;;;;;;;5215994;28;20033;-69
2023/07/18 01:02:53;;;;;;;5.95;2.00;;;;;;;;;;5219356;28;20033;-69
2023/07/18 01:05:23;;;;;;;7.82;3.30;;;;;;;;;;5224048;28;20024;-69
2023/07/18 01:07:54;;;;;;;6.32;1.90;;;;;;;;;;5232015;28;20572;-69
2023/07/18 01:10:24;;;;;;;3.95;1.90;;;;;;;;;;5224303;28;20672;-69
2023/07/18 01:12:56;;;;;;;11.35;3.80;;;;;;;;;;5224268;28;20470;-69
2023/07/18 01:15:28;;;;;;;7.65;2.08;;;;;;;;;;5223767;28;20028;-69
2023/07/18 01:17:58;;;;;;;6.88;2.30;;;;;;;;;;5223504;28;20108;-69
2023/07/18 01:20:29;;;;;;;12.50;2.60;;;;;;;;;;5224004;28;20410;-69
2023/07/18 01:23:00;;;;;;;7.63;1.95;;;;;;;;;;5224209;28;20265;-69
2023/07/18 01:25:30;;;;;;;12.05;2.25;;;;;;;;;;5223909;28;20013;-69
2023/07/18 01:28:01;;;;;;;7.15;2.08;;;;;;;;;;5223557;28;20040;-68
2023/07/18 01:30:31;;;;;;;12.32;2.90;;;;;;;;;;5226278;28;20028;-68
2023/07/18 01:33:02;;;;;;;5.05;2.25;;;;;;;;;;5228248;28;20383;-68
2023/07/18 01:35:33;;;;;;;7.10;2.33;;;;;;;;;;5227977;28;20021;-68
2023/07/18 01:38:03;;;;;;;7.60;2.22;;;;;;;;;;5228007;28;20029;-68
2023/07/18 01:40:33;;;;;;;10.25;2.10;;;;;;;;;;5227302;28;20048;-69
2023/07/18 01:43:04;;;;;;;6.75;2.00;;;;;;;;;;5227853;28;20013;-68
2023/07/18 01:45:34;;;;;;;8.35;1.98;;;;;;;;;;5227424;28;20045;-69
2023/07/18 01:48:05;;;;;;;4.80;2.25;;;;;;;;;;5227415;28;20036;-68
2023/07/18 01:50:35;;;;;;;4.20;2.15;;;;;;;;;;5227720;28;20025;-68
2023/07/18 01:53:06;;;;;;;5.07;1.83;;;;;;;;;;5227324;28;20083;-68
2023/07/18 01:55:38;;;;;;;4.65;2.45;;;;;;;;;;5227444;28;20025;-69
2023/07/18 01:58:08;;;;;;;5.18;2.22;;;;;;;;;;5227332;28;20044;-69
2023/07/18 02:00:38;;;;;;;6.07;2.33;;;;;;;;;;5216861;28;20013;-69
2023/07/18 02:03:08;;;;;;;6.32;2.40;;;;;;;;;;5224316;28;20025;-69
2023/07/18 02:05:39;;;;;;;6.72;2.20;;;;;;;;;;5226730;28;20075;-69
2023/07/18 02:08:09;;;;;;;5.90;2.58;;;;;;;;;;5227156;28;20017;-69
2023/07/18 02:10:40;;;;;;;5.80;2.22;;;;;;;;;;5226964;28;20482;-69
2023/07/18 02:13:10;;;;;;;4.90;2.40;;;;;;;;;;5227196;28;20021;-69
2023/07/18 02:15:40;;;;;;;5.00;2.28;;;;;;;;;;5226404;28;20474;-69
2023/07/18 02:18:11;;;;;;;5.97;2.15;;;;;;;;;;5226760;28;20433;-69
2023/07/18 02:20:42;;;;;;;3.85;1.88;;;;;;;;;;5226963;28;20060;-69
2023/07/18 02:23:12;;;;;;;4.43;1.90;;;;;;;;;;5227234;28;20123;-69
2023/07/18 02:25:42;;;;;;;8.35;2.72;;;;;;;;;;5226369;28;20100;-69
2023/07/18 02:28:13;;;;;;;8.88;2.50;;;;;;;;;;5226879;28;20082;-69
2023/07/18 02:30:44;;;;;;;6.95;2.28;;;;;;;;;;5226530;28;20017;-69
2023/07/18 02:33:14;;;;;;;10.07;2.45;;;;;;;;;;5226911;28;20024;-72
2023/07/18 02:36:00;;;;;;;4.57;2.00;;;;;;;;;;5226245;28;20059;-72
2023/07/18 02:38:30;;;;;;;;;;;;;;;;;;5226984;28;20028;-71
2023/07/18 02:41:00;;;;;;;6.37;1.40;;;;;;;;;;5225192;28;20377;-71
2023/07/18 02:43:31;;;;;;;4.25;1.70;;;;;;;;;;5226643;28;20023;-69
2023/07/18 02:46:01;;;;;;;9.50;1.98;;;;;;;;;;5226317;28;20028;-69
2023/07/18 02:48:31;;;;;;;8.57;3.65;;;;;;;;;;5226308;28;20036;-69
2023/07/18 02:51:01;;;;;;;16.42;2.63;;;;;;;;;;5225422;28;20508;-69
2023/07/18 02:53:32;;;;;;;5.18;1.92;;;;;;;;;;5226121;28;20071;-69
2023/07/18 02:56:02;;;;;;;4.10;1.75;;;;;;;;;;5226099;28;20033;-69
2023/07/18 02:58:32;;;;;;;7.45;1.80;;;;;;;;;;5226187;28;20017;-69
2023/07/18 03:01:03;;;;;;;3.85;1.95;;;;;;;;;;5213017;28;20018;-71
2023/07/18 03:03:34;;;;;;;5.43;2.10;;;;;;;;;;5226188;28;20509;-69
2023/07/18 03:06:04;;;;;;;6.47;2.83;;;;;;;;;;5226005;28;20021;-68
2023/07/18 03:08:36;;;;;;;5.50;2.22;;;;;;;;;;5226149;28;20386;-69
2023/07/18 03:11:06;;;;;;;5.10;1.70;;;;;;;;;;5225765;28;20021;-69
2023/07/18 03:13:36;;;;;;;4.07;2.30;;;;;;;;;;5226159;28;20532;-70
2023/07/18 03:16:07;;;;;;;8.43;2.08;;;;;;;;;;5225597;28;20067;-71
2023/07/18 03:18:37;;;;;;;13.82;2.88;;;;;;;;;;5225542;28;20481;-71
2023/07/18 03:21:07;;;;;;;16.45;1.65;;;;;;;;;;5225961;28;20047;-71
2023/07/18 03:23:38;;;;;;;1.38;1.05;;;;;;;;;;5225944;28;20021;-71
2023/07/18 03:26:08;;;;;;;6.80;1.98;;;;;;;;;;5225384;28;20052;-71
2023/07/18 03:28:38;;;;;;;4.93;1.95;;;;;;;;;;5225642;28;20024;-71
2023/07/18 03:31:09;;;;;;;8.02;2.10;;;;;;;;;;5225271;28;20028;-71
2023/07/18 03:33:40;;;;;;;6.90;2.22;;;;;;;;;;5225883;28;20055;-71
2023/07/18 03:36:10;;;;;;;7.97;2.38;;;;;;;;;;5225155;28;20025;-69
2023/07/18 03:38:41;;;;;;;9.50;2.42;;;;;;;;;;5225417;28;20489;-71
2023/07/18 03:41:11;;;;;;;4.30;2.33;;;;;;;;;;5225548;28;20017;-69
2023/07/18 03:43:42;;;;;;;5.03;2.78;;;;;;;;;;5224997;28;20025;-69
2023/07/18 03:46:12;;;;;;;5.88;2.60;;;;;;;;;;5223984;28;20057;-69
2023/07/18 03:48:42;;;;;;;3.63;2.33;;;;;;;;;;5225275;28;20474;-69
2023/07/18 03:51:14;;;;;;;8.68;2.15;;;;;;;;;;5225463;28;20025;-69
2023/07/18 03:53:44;;;;;;;8.75;2.35;;;;;;;;;;5224917;28;20390;-69
2023/07/18 03:56:15;;;;;;;5.03;2.22;;;;;;;;;;5224382;28;20029;-69
2023/07/18 03:58:45;;;;;;;7.22;2.08;;;;;;;;;;5225006;28;20028;-69
2023/07/18 04:01:15;;;;;;;6.10;2.08;;;;;;;;;;5211765;28;20124;-70
2023/07/18 04:03:46;;;;;;;5.60;1.88;;;;;;;;;;5225170;28;20028;-69
2023/07/18 04:06:16;;;;;;;6.30;1.92;;;;;;;;;;5224690;28;20036;-69
2023/07/18 04:08:46;;;;;;;4.45;2.55;;;;;;;;;;5224863;28;20506;-69
2023/07/18 04:11:17;;;;;;;7.30;2.15;;;;;;;;;;5224632;28;20021;-69
2023/07/18 04:13:47;;;;;;;4.03;2.00;;;;;;;;;;5225057;28;20470;-69
2023/07/18 04:16:18;;;;;;;5.05;2.25;;;;;;;;;;5224079;28;20033;-69
2023/07/18 04:18:48;;;;;;;7.38;2.40;;;;;;;;;;5224618;28;20534;-69
2023/07/18 04:21:18;;;;;;;6.93;2.30;;;;;;;;;;5224763;28;20023;-69
2023/07/18 04:23:48;;;;;;;2.83;1.73;;;;;;;;;;5224607;28;20057;-69
2023/07/18 04:26:19;;;;;;;5.90;2.20;;;;;;;;;;5224313;28;20472;-69
2023/07/18 04:28:49;;;;;;;5.40;2.55;;;;;;;;;;5224476;28;20078;-69
2023/07/18 04:31:20;;;;;;;5.68;2.67;;;;;;;;;;5224472;28;20024;-70
2023/07/18 04:33:50;;;;;;;6.43;2.70;;;;;;;;;;5224540;28;20021;-69
2023/07/18 04:36:20;;;;;;;4.88;1.63;;;;;;;;;;5223022;28;20027;-69
2023/07/18 04:38:51;;;;;;;3.60;2.10;;;;;;;;;;5224343;28;20031;-69
2023/07/18 04:41:21;;;;;;;8.13;2.13;;;;;;;;;;5224506;28;20071;-69
2023/07/18 04:43:51;;;;;;;6.72;2.58;;;;;;;;;;5224176;28;20013;-69
2023/07/18 04:46:22;;;;;;;6.78;2.65;;;;;;;;;;5224080;28;20013;-69
2023/07/18 04:48:52;;;;;;;7.75;2.70;;;;;;;;;;5224327;28;20055;-69
2023/07/18 04:51:24;;;;;;;6.35;2.88;;;;;;;;;;5224318;28;20017;-69
2023/07/18 04:53:54;;;;;;;7.70;3.10;;;;;;;;;;5224943;28;20060;-69
2023/07/18 04:56:25;;;;;;;9.70;3.22;;;;;;;;;;5223884;28;20087;-69
2023/07/18 04:58:55;;;;;;;9.98;3.38;;;;;;;;;;5224367;28;20378;-69
2023/07/18 05:01:26;;;;;;;7.65;3.35;;;;;;;;;;5210641;28;20092;-69
2023/07/18 05:03:57;;;;;;;10.40;2.95;;;;;;;;;;5224727;28;20017;-69
2023/07/18 05:06:27;;;;;;;9.15;3.10;;;;;;;;;;5228438;28;20017;-69
2023/07/18 05:08:58;;;;;;;11.40;3.83;;;;;;;;;;5228024;28;20025;-70
2023/07/18 05:11:28;;;;;;;9.00;3.10;;;;;;;;;;5228049;28;20116;-69
2023/07/18 05:13:58;;;;;;;8.57;3.60;;;;;;;;;;5228278;28;20055;-69
2023/07/18 05:16:29;;;;;;;10.85;3.55;;;;;;;;;;5227762;28;20031;-69
2023/07/18 05:18:59;;;;;;;10.75;3.38;;;;;;;;;;5228729;28;20367;-69
2023/07/18 05:21:30;;;;;;;12.20;3.13;;;;;;;;;;5227763;28;20371;-69
2023/07/18 05:24:00;;;;;;;9.55;3.05;;;;;;;;;;5228154;28;20025;-69
2023/07/18 05:26:30;;;;;;;9.80;3.55;;;;;;;;;;5227756;28;20066;-69
2023/07/18 05:29:01;;;;;;;8.68;3.60;;;;;;;;;;5228069;28;20406;-69
2023/07/18 05:31:31;;;;;;;9.57;3.20;;;;;;;;;;5228192;28;20172;-70
2023/07/18 05:34:01;;;;;;;7.10;2.80;;;;;;;;;;5227716;28;20036;-70
2023/07/18 05:36:31;;;;;;;8.98;3.20;;;;;;;;;;5227524;28;20053;-70
2023/07/18 05:39:02;;;;;;;15.88;4.00;;;;;;;;;;5228487;28;20523;-70
2023/07/18 05:41:33;;;;;;;10.20;3.55;;;;;;;;;;5228095;28;20021;-70
2023/07/18 05:44:03;;;;;;;15.25;3.97;;;;;;;;;;5227926;28;20021;-70
2023/07/18 05:46:33;;;;;;;7.80;3.17;;;;;;;;;;5227185;28;20467;-70
2023/07/18 05:49:04;;;;;;;10.05;3.00;;;;;;;;;;5227824;28;20017;-70
2023/07/18 05:51:34;;;;;;;11.52;3.13;;;;;;;;;;5227488;28;20021;-70
2023/07/18 05:54:04;;;;;;;17.90;2.92;;;;;;;;;;5227942;28;20025;-70
2023/07/18 05:56:34;;;;;;;12.18;3.58;;;;;;;;;;5227020;28;20013;-70
2023/07/18 05:59:06;;;;;;;9.13;3.53;;;;;;;;;;5227323;28;20035;-70
2023/07/18 06:01:36;;;;;;;8.13;2.80;;;;;;;;;;5212804;28;20024;-70
2023/07/18 06:04:07;;;;;;;8.15;2.92;;;;;;;;;;5227635;28;20029;-70
2023/07/18 06:06:38;;;;;;;10.25;2.95;;;;;;;;;;5226795;28;20514;-70
2023/07/18 06:09:08;;;;;;;8.25;2.60;;;;;;;;;;5227950;28;20028;-70
2023/07/18 06:11:38;;;;;;;4.50;2.10;;;;;;;;;;5226768;28;20048;-70
2023/07/18 06:14:08;;;;;;;13.77;2.10;;;;;;;;;;5227248;28;20021;-70
2023/07/18 06:16:39;;;;;;;7.68;2.03;;;;;;;;;;5226466;28;20020;-70
2023/07/18 06:19:09;;;;;;;5.78;1.75;;;;;;;;;;5227028;28;20047;-71
2023/07/18 06:21:39;;;;;;;7.63;2.38;;;;;;;;;;5227114;28;20032;-70
2023/07/18 06:24:10;;;;;;;7.25;1.55;;;;;;;;;;5226759;28;20032;-70
2023/07/18 06:26:40;;;;;;;4.82;2.00;;;;;;;;;;5226463;28;20032;-71
2023/07/18 06:29:10;;;;;;;4.85;1.67;;;;;;;;;;5226889;28;20455;-70
2023/07/18 06:31:41;;;;;;;5.38;1.63;;;;;;;;;;5227290;28;20124;-70
2023/07/18 06:34:12;;;;;;;7.10;1.52;;;;;;;;;;5226734;28;20024;-71
2023/07/18 06:36:43;;;;;;;9.07;1.75;;;;;;;;;;5226261;28;20025;-71
2023/07/18 06:39:14;;;;;;;6.93;1.33;;;;;;;;;;5226823;28;20029;-70
2023/07/18 06:41:44;;;;;;;6.63;2.30;;;;;;;;;;5226713;28;20135;-71
2023/07/18 06:44:14;;;;;;;4.32;1.40;;;;;;;;;;5226887;28;20057;-71
2023/07/18 06:46:45;;;;;;;8.23;1.58;;;;;;;;;;5226458;28;20021;-71
2023/07/18 06:49:18;;;;;;;6.32;1.85;;;;;;;;;;5226727;28;20017;-71
2023/07/18 06:51:49;;;;;;;4.78;1.60;;;;;;;;;;5226655;28;20079;-71
2023/07/18 06:54:19;;;;;;;10.52;1.58;;;;;;;;;;5226534;28;20029;-71
2023/07/18 06:56:50;;;;;;;5.63;1.30;;;;;;;;;;5226206;28;20029;-72
2023/07/18 06:59:20;;;;;;;7.00;1.20;;;;;;;;;;5226262;28;20096;-71
2023/07/18 07:01:50;;;;;;;3.50;1.17;;;;;;;;;;5213055;28;20100;-71
2023/07/18 07:04:21;;;;;;;6.30;1.23;;;;;;;;;;5226305;28;20169;-71
2023/07/18 07:06:51;;;;;;;8.00;1.20;;;;;;;;;;5224623;28;20021;-71
2023/07/18 07:09:21;;;;;;;11.30;1.75;;;;;;;;;;5225949;28;20477;-71
2023/07/18 07:11:52;;;;;;;9.63;1.35;;;;;;;;;;5225806;28;20041;-71
2023/07/18 07:14:22;;;;;;;7.07;1.90;;;;;;;;;;5226368;28;20466;-71
2023/07/18 07:16:53;;;;;;;8.45;1.50;;;;;;;;;;5225587;28;20056;-71
2023/07/18 07:19:23;;;;;;;5.30;1.35;;;;;;;;;;5225923;28;20025;-71
2023/07/18 07:21:53;;;;;;;10.50;1.58;;;;;;;;;;5225988;28;20105;-71
2023/07/18 07:24:24;;;;;;;7.25;1.10;;;;;;;;;;5225486;28;20091;-71
2023/07/18 07:26:54;;;;;;;7.20;1.10;;;;;;;;;;5224884;28;20056;-71
2023/07/18 07:29:25;;;;;;;3.67;0.73;;;;;;;;;;5225483;28;20382;-71
2023/07/18 07:31:56;;;;;;;5.55;1.05;;;;;;;;;;5225728;28;20790;-72
2023/07/18 07:34:26;;;;;;;1.67;0.67;;;;;;;;;;5226387;28;20056;-72
2023/07/18 07:36:56;;;;;;;5.63;1.20;;;;;;;;;;5224675;28;20760;-71
2023/07/18 07:39:27;;;;;;;2.72;0.77;;;;;;;;;;5226067;28;20073;-71
2023/07/18 07:41:57;;;;;;;3.17;0.90;;;;;;;;;;5225410;28;20078;-72
2023/07/18 07:44:27;;;;;;;6.60;1.27;;;;;;;;;;5225576;28;20098;-71
2023/07/18 07:46:58;;;;;;;3.23;0.60;;;;;;;;;;5225129;28;20059;-71
2023/07/18 07:49:28;;;;;;;3.85;1.00;;;;;;;;;;5224974;28;20733;-71
2023/07/18 07:51:58;;;;;;;2.70;1.08;;;;;;;;;;5225271;28;20021;-71
2023/07/18 07:54:29;;;;;;;6.60;1.00;;;;;;;;;;5224431;28;20386;-72
2023/07/18 07:56:59;;;;;;;3.35;1.17;;;;;;;;;;5224705;28;20275;-72
2023/07/18 07:59:30;;;;;;;8.70;1.23;;;;;;;;;;5224644;28;20033;-71
2023/07/18 08:02:00;;;;;;;7.00;1.35;;;;;;;;;;5212838;28;20029;-72
2023/07/18 08:04:31;;;;;;;3.22;1.10;;;;;;;;;;5224950;28;20021;-72
2023/07/18 08:07:01;;;;;;;4.33;1.00;;;;;;;;;;5224632;28;20031;-72
2023/07/18 08:09:31;;;;;;;3.83;0.93;;;;;;;;;;5225228;28;20810;-72
2023/07/18 08:12:03;;;;;;;3.90;0.83;;;;;;;;;;5225677;28;20346;-72
2023/07/18 08:14:34;;;;;;;2.05;0.90;;;;;;;;;;5224561;28;20263;-72
2023/07/18 08:17:04;;;;;;;5.18;1.33;;;;;;;;;;5224391;28;20028;-72
2023/07/18 08:19:35;;;;;;;6.57;1.10;;;;;;;;;;5224911;28;20389;-71
2023/07/18 08:22:05;;;;;;;3.33;1.27;;;;;;;;;;5224826;28;20032;-71
2023/07/18 08:24:36;;;;;;;3.28;0.82;;;;;;;;;;5224813;28;20057;-71
2023/07/18 08:27:06;;;;;;;3.42;0.90;;;;;;;;;;5223981;28;20021;-71
2023/07/18 08:29:37;;;;;;;6.78;1.27;;;;;;;;;;5224802;28;20047;-71
2023/07/18 08:32:07;;;;;;;3.65;1.02;;;;;;;;;;5224664;28;20025;-70
2023/07/18 08:34:38;;;;;;;2.17;0.98;;;;;;;;;;5224791;28;20387;-71
2023/07/18 08:37:09;;;;;;;6.70;1.13;;;;;;;;;;5223753;28;20536;-71
2023/07/18 08:39:39;;;;;;;5.68;1.38;;;;;;;;;;5224745;28;20090;-71
2023/07/18 08:42:12;;;;;;;4.93;0.70;;;;;;;;;;5224578;28;20013;-71
2023/07/18 08:44:44;;;;;;;2.78;0.88;;;;;;;;;;5224728;28;20124;-71
2023/07/18 08:47:15;;;;;;;2.42;0.90;;;;;;;;;;5224108;28;20028;-71
2023/07/18 08:49:45;;;;;;;2.20;0.93;;;;;;;;;;5223949;28;20426;-71
2023/07/18 08:52:15;;;;;;;4.40;1.13;;;;;;;;;;5224531;28;20467;-71
2023/07/18 08:54:46;;;;;;;2.83;0.77;;;;;;;;;;5224449;28;20067;-71
2023/07/18 08:57:16;;;;;;;2.92;0.77;;;;;;;;;;5224064;28;20417;-71
2023/07/18 08:59:47;;;;;;;4.07;1.00;;;;;;;;;;5221143;28;20018;-71
2023/07/18 09:02:17;;;;;;;6.70;0.90;;;;;;;;;;5214039;28;20159;-71
2023/07/18 09:04:48;;;;;;;6.95;0.95;;;;;;;;;;5224243;28;20488;-71
2023/07/18 09:07:19;;;;;;;2.40;0.93;;;;;;;;;;5223959;28;20021;-70
2023/07/18 09:09:50;;;;;;;3.33;1.00;;;;;;;;;;5224063;28;20013;-70
2023/07/18 09:12:20;;;;;;;9.20;1.05;;;;;;;;;;5224300;28;20067;-70
2023/07/18 09:14:55;;;;;;;5.25;0.90;;;;;;;;;;5223980;28;20032;-71
2023/07/18 09:17:25;;;;;;;5.20;0.98;;;;;;;;;;5223825;28;20033;-71
2023/07/18 09:19:55;;;;;;;2.15;0.90;;;;;;;;;;5224278;28;20371;-70
2023/07/18 09:22:26;;;;;;;2.15;0.60;;;;;;;;;;5224117;28;20053;-71
2023/07/18 09:24:56;;;;;;;5.25;0.88;;;;;;;;;;5224252;28;20021;-70
2023/07/18 09:27:26;;;;;;;4.20;1.08;;;;;;;;;;5222070;28;20098;-71
2023/07/18 09:29:56;;;;;;;2.03;0.68;;;;;;;;;;5224177;28;20021;-71
2023/07/18 09:32:27;;;;;;;1.45;0.70;;;;;;;;;;5223974;28;20108;-71
2023/07/18 09:34:59;;;;;;;5.43;0.95;;;;;;;;;;5224394;28;20025;-71
2023/07/18 09:37:29;;;;;;;5.18;0.90;;;;;;;;;;5223787;28;20442;-71
2023/07/18 09:40:00;;;;;;;2.63;1.05;;;;;;;;;;5223878;28;20048;-71
2023/07/18 09:42:32;;;;;;;4.50;0.65;;;;;;;;;;5223877;28;20092;-71
2023/07/18 09:45:03;;;;;;;1.30;0.68;;;;;;;;;;5224020;28;20017;-71
2023/07/18 09:47:34;;;;;;;2.78;0.82;;;;;;;;;;5223565;28;20025;-71
2023/07/18 09:50:05;;;;;;;6.35;1.00;;;;;;;;;;5223611;28;20025;-71
2023/07/18 09:52:38;;;;;;;4.70;0.60;;;;;;;;;;5227759;28;20024;-71
2023/07/18 09:55:10;;;;;;;3.83;1.17;;;;;;;;;;5227751;28;20047;-71
2023/07/18 09:57:41;;;;;;;2.88;0.80;;;;;;;;;;5227149;28;20104;-71
2023/07/18 10:00:11;;;;;;;1.60;0.60;;;;;;;;;;5220826;28;20013;-71
2023/07/18 10:02:42;;;;;;;2.00;0.73;;;;;;;;;;5220172;28;20033;-71
2023/07/18 10:05:14;;;;;;;4.80;0.70;;;;;;;;;;5227508;28;20491;-71
2023/07/18 10:07:44;;;;;;;2.65;0.50;;;;;;;;;;5227142;28;20028;-71
2023/07/18 10:10:16;;;;;;;2.15;0.77;;;;;;;;;;5227445;28;20041;-71
2023/07/18 10:13:04;;;;;;;1.85;0.75;;;;;;;;;;5226989;28;20017;-71
2023/07/18 10:15:54;;;;;;;3.00;0.80;;;;;;;;;;5227266;28;20027;-71
2023/07/18 10:18:25;;;;;;;3.97;0.82;;;;;;;;;;5227057;28;20036;-71
2023/07/18 10:20:58;;;;;;;3.90;0.80;;;;;;;;;;5227228;28;20021;-71
2023/07/18 10:23:38;;;;;;;3.88;0.60;;;;;;;;;;5226868;28;20060;-71
2023/07/18 10:26:09;;;;;;;2.33;0.55;;;;;;;;;;5226652;28;20567;-71
2023/07/18 10:28:41;;;;;;;2.17;0.60;;;;;;;;;;5226963;28;20054;-71
2023/07/18 10:31:27;;;;;;;2.33;0.82;;;;;;;;;;5227082;28;20020;-71
2023/07/18 10:34:14;;;;;;;4.50;0.73;;;;;;;;;;5226446;28;20025;-72
2023/07/18 10:36:57;;;;;;;2.58;0.70;;;;;;;;;;5226499;28;20025;-72
2023/07/18 10:39:40;;;;;;;2.78;0.60;;;;;;;;;;5214755;28;20086;-72
2023/07/18 10:42:25;;;;;;;2.40;0.70;;;;;;;;;;5226391;28;20040;-72
2023/07/18 10:44:57;;;;;;;5.00;0.90;;;;;;;;;;5226706;28;20104;-71
2023/07/18 10:47:27;;;;;;;1.13;0.47;;;;;;;;;;5226153;28;20062;-72
2023/07/18 10:49:58;;;;;;;2.17;0.60;;;;;;;;;;5225343;28;20467;-72
2023/07/18 10:52:28;;;;;;;2.38;0.77;;;;;;;;;;5226692;28;20143;-72
2023/07/18 10:54:59;;;;;;;3.95;0.80;;;;;;;;;;5225035;28;20056;-72
2023/07/18 10:57:33;;;;;;;3.47;0.70;;;;;;;;;;5225993;28;20023;-72
2023/07/18 11:00:05;;;;;;;4.70;1.20;;;;;;;;;;5220976;28;20041;-72
2023/07/18 11:02:37;;;;;;;3.17;0.82;;;;;;;;;;5217544;28;20024;-72
2023/07/18 11:05:11;;;;;;;1.38;0.55;;;;;;;;;;5225924;28;20027;-72
2023/07/18 11:07:42;;;;;;;4.22;0.75;;;;;;;;;;5225829;28;20025;-71
2023/07/18 11:10:13;;;;;;;1.63;0.60;;;;;;;;;;5226183;28;20024;-72
2023/07/18 11:12:43;;;;;;;1.52;0.60;;;;;;;;;;5226018;28;20020;-72
2023/07/18 11:15:14;;;;;;;2.25;0.70;;;;;;;;;;5221122;28;20052;-72
2023/07/18 11:17:44;;;;;;;2.13;0.63;;;;;;;;;;5224604;28;20159;-72
2023/07/18 11:20:15;;;;;;;2.10;0.80;;;;;;;;;;5225526;28;20049;-72
2023/07/18 11:22:45;;;;;;;10.13;1.15;;;;;;;;;;5225538;28;20017;-72
2023/07/18 11:25:15;;;;;;;2.58;0.90;;;;;;;;;;5225377;28;20095;-72
2023/07/18 11:27:48;;;;;;;2.90;0.98;;;;;;;;;;5225157;28;20025;-72
2023/07/18 11:30:21;;;;;;;4.22;1.33;;;;;;;;;;5224907;28;20048;-72
2023/07/18 11:32:51;;;;;;;6.68;1.20;;;;;;;;;;5225432;28;20055;-72
2023/07/18 11:35:22;;;;;;;3.03;1.00;;;;;;;;;;5225202;28;20462;-73
2023/07/18 11:37:53;;;;;;;3.60;1.08;;;;;;;;;;5224838;28;20035;-72
2023/07/18 11:40:25;;;;;;;4.15;1.05;;;;;;;;;;5225135;28;20378;-72
2023/07/18 11:42:57;;;;;;;4.53;1.55;;;;;;;;;;5224932;28;20433;-72
2023/07/18 11:45:28;;;;;;;2.65;1.08;;;;;;;;;;5223909;28;20063;-72
2023/07/18 11:47:59;;;;;;;2.67;1.13;;;;;;;;;;5224689;28;20045;-72
2023/07/18 11:50:29;;;;;;;4.93;1.05;;;;;;;;;;5224900;28;20108;-72
2023/07/18 11:53:01;;;;;;;4.95;1.35;;;;;;;;;;5224602;28;20478;-72
2023/07/18 11:55:32;;;;;;;3.67;1.02;;;;;;;;;;5224832;28;20025;-72
2023/07/18 11:58:07;;;;;;;3.03;0.98;;;;;;;;;;5224793;28;20331;-72
2023/07/18 12:00:38;;;;;;;3.97;1.10;;;;;;;;;;5224913;28;20081;-73
2023/07/18 12:03:08;;;;;;;3.80;0.80;;;;;;;;;;5224780;28;20032;-73
2023/07/18 12:05:38;;;;;;;6.53;1.30;;;;;;;;;;5224322;28;20048;-72
2023/07/18 12:08:09;;;;;;;2.20;0.98;;;;;;;;;;5224777;28;20013;-72
2023/07/18 12:10:39;;;;;;;5.43;0.88;;;;;;;;;;5224884;28;20092;-73
2023/07/18 12:13:10;;;;;;;5.00;1.00;;;;;;;;;;5224304;28;20360;-72
2023/07/18 12:15:40;;;;;;;3.22;1.30;;;;;;;;;;5224182;28;20294;-72
2023/07/18 12:18:11;;;;;;;2.50;1.10;;;;;;;;;;5224043;28;20091;-72
2023/07/18 12:20:41;;;;;;;6.45;1.70;;;;;;;;;;5224477;28;20248;-72
2023/07/18 12:23:11;;;;;;;5.90;1.20;;;;;;;;;;5224773;28;20043;-72
2023/07/18 12:25:42;;;;;;;3.10;1.10;;;;;;;;;;5223985;28;20378;-73
2023/07/18 12:28:12;;;;;;;3.23;1.30;;;;;;;;;;5224480;28;20055;-72
2023/07/18 12:30:43;;;;;;;3.50;1.50;;;;;;;;;;5223978;28;20268;-72
2023/07/18 12:33:14;;;;;;;5.05;1.38;;;;;;;;;;5224523;28;20390;-73
2023/07/18 12:35:45;;;;;;;7.88;1.27;;;;;;;;;;5224054;28;20025;-72
2023/07/18 12:38:15;;;;;;;5.33;1.23;;;;;;;;;;5224321;28;20232;-72
2023/07/18 12:40:45;;;;;;;4.47;1.20;;;;;;;;;;5224397;28;20266;-72
2023/07/18 12:43:16;;;;;;;2.63;1.45;;;;;;;;;;5223864;28;20013;-72
2023/07/18 12:45:46;;;;;;;7.00;1.37;;;;;;;;;;5224160;28;20025;-72
2023/07/18 12:48:16;;;;;;;3.57;1.43;;;;;;;;;;5224042;28;20748;-72
2023/07/18 12:50:47;;;;;;;5.50;1.13;;;;;;;;;;5224210;28;20350;-72
2023/07/18 12:53:17;;;;;;;4.43;1.40;;;;;;;;;;5223998;28;20278;-72
2023/07/18 12:55:47;;;;;;;4.70;1.57;;;;;;;;;;5223426;28;20021;-72
2023/07/18 12:58:17;;;;;;;4.67;1.50;;;;;;;;;;5224058;28;20286;-72
2023/07/18 13:00:48;;;;;;;5.57;1.35;;;;;;;;;;5223951;28;20272;-72
2023/07/18 13:03:18;;;;;;;2.83;1.10;;;;;;;;;;5224074;28;20067;-72
2023/07/18 13:05:48;;;;;;;5.30;1.20;;;;;;;;;;5223505;28;20024;-72
2023/07/18 13:08:18;;;;;;;5.05;1.35;;;;;;;;;;5224229;28;20033;-73
2023/07/18 13:10:49;;;;;;;5.28;1.80;;;;;;;;;;5223952;28;20063;-73
2023/07/18 13:13:19;;;;;;;5.25;1.35;;;;;;;;;;5224087;28;20057;-73
2023/07/18 13:15:49;;;;;;;8.63;1.50;;;;;;;;;;5223608;28;20040;-72
2023/07/18 13:18:20;;;;;;;4.70;1.35;;;;;;;;;;5223575;28;20074;-73
2023/07/18 13:20:50;;;;;;;3.95;1.35;;;;;;;;;;5223546;28;20021;-73
2023/07/18 13:23:20;;;;;;;4.15;1.42;;;;;;;;;;5224114;28;20009;-73
2023/07/18 13:25:50;;;;;;;3.67;1.77;;;;;;;;;;5224550;28;20075;-73
2023/07/18 13:28:21;;;;;;;3.53;1.50;;;;;;;;;;5227979;28;20474;-72
2023/07/18 13:30:52;;;;;;;2.22;1.20;;;;;;;;;;5226423;28;20115;-72
2023/07/18 13:33:22;;;;;;;2.17;1.30;;;;;;;;;;5227628;28;20029;-72
2023/07/18 13:35:52;;;;;;;3.72;1.30;;;;;;;;;;5227207;28;20112;-72
2023/07/18 13:38:23;;;;;;;4.37;1.50;;;;;;;;;;5227304;28;20028;-72
2023/07/18 13:40:53;;;;;;;6.00;1.50;;;;;;;;;;5227644;28;20256;-72
2023/07/18 13:43:23;;;;;;;2.65;1.52;;;;;;;;;;5227063;28;20021;-72
2023/07/18 13:45:53;;;;;;;6.20;1.73;;;;;;;;;;5227614;28;20441;-72
2023/07/18 13:48:24;;;;;;;3.30;1.33;;;;;;;;;;5227337;28;20032;-72
2023/07/18 13:50:55;;;;;;;4.38;1.52;;;;;;;;;;5227573;28;20745;-72
2023/07/18 13:53:25;;;;;;;2.78;1.48;;;;;;;;;;5227416;28;20021;-72
2023/07/18 13:55:55;;;;;;;3.70;1.55;;;;;;;;;;5226751;28;20103;-72
2023/07/18 13:58:26;;;;;;;4.97;1.10;;;;;;;;;;5226877;28;20059;-72
2023/07/18 14:00:57;;;;;;;4.38;1.50;;;;;;;;;;5227258;28;20052;-72
2023/07/18 14:03:27;;;;;;;6.07;1.67;;;;;;;;;;5227116;28;20103;-72
2023/07/18 14:05:57;;;;;;;2.92;1.13;;;;;;;;;;5226628;28;20039;-72
2023/07/18 14:08:29;;;;;;;3.08;1.45;;;;;;;;;;5226602;28;20025;-72
2023/07/18 14:10:59;;;;;;;2.08;1.30;;;;;;;;;;5226886;28;20078;-72
2023/07/18 14:13:30;;;;;;;4.13;1.60;;;;;;;;;;5226942;28;20021;-72
2023/07/18 14:16:01;;;;;;;8.77;1.73;;;;;;;;;;5226375;28;20057;-72
2023/07/18 14:18:31;;;;;;;6.50;1.85;;;;;;;;;;5226562;28;20024;-72
2023/07/18 14:21:01;;;;;;;6.18;1.50;;;;;;;;;;5226917;28;20055;-72
2023/07/18 14:23:32;;;;;;;4.03;1.30;;;;;;;;;;5226887;28;20013;-72
2023/07/18 14:26:02;;;;;;;6.20;1.27;;;;;;;;;;5226339;28;20021;-72
2023/07/18 14:28:32;;;;;;;4.23;1.80;;;;;;;;;;5226433;28;20260;-72
2023/07/18 14:31:02;;;;;;;4.63;1.65;;;;;;;;;;5226955;28;20275;-72
2023/07/18 14:33:33;;;;;;;3.85;1.35;;;;;;;;;;5226162;28;20025;-72
2023/07/18 14:36:03;;;;;;;3.87;1.80;;;;;;;;;;5226166;28;20103;-72
2023/07/18 14:38:33;;;;;;;2.80;1.58;;;;;;;;;;5226372;28;20284;-72
2023/07/18 14:41:04;;;;;;;3.33;1.48;;;;;;;;;;5226607;28;20119;-72
2023/07/18 14:43:34;;;;;;;5.60;1.30;;;;;;;;;;5226177;28;20021;-72
2023/07/18 14:46:05;;;;;;;2.53;1.40;;;;;;;;;;5225819;28;20467;-72
2023/07/18 14:48:35;;;;;;;3.22;1.70;;;;;;;;;;5226163;28;20036;-72
2023/07/18 14:51:06;;;;;;;4.28;1.40;;;;;;;;;;5226401;28;20021;-72
2023/07/18 14:53:36;;;;;;;2.22;1.30;;;;;;;;;;5226300;28;20051;-72
2023/07/18 14:56:06;;;;;;;5.25;1.58;;;;;;;;;;5225926;28;20119;-72
2023/07/18 14:58:37;;;;;;;3.25;1.40;;;;;;;;;;5225608;28;20025;-72
2023/07/18 15:01:07;;;;;;;4.97;1.50;;;;;;;;;;5226080;28;20017;-74
2023/07/18 15:03:37;;;;;;;3.67;1.38;;;;;;;;;;5226256;28;20776;-72
2023/07/18 15:06:08;;;;;;;5.95;1.90;;;;;;;;;;5225503;28;20023;-72